createdAt,value
2022-09-21T00:01:53.086Z,4.05
2022-09-21T00:04:20.510Z,3.72
2022-09-21T00:06:48.070Z,3.60
2022-09-21T00:09:16.161Z,3.78
2022-09-21T00:11:43.611Z,3.50
2022-09-21T00:14:13.359Z,3.42
2022-09-21T00:16:42.158Z,4.18
2022-09-21T00:19:10.503Z,4.00
2022-09-21T00:21:38.283Z,4.07
2022-09-21T00:24:07.061Z,3.47
2022-09-21T00:26:34.875Z,3.60
2022-09-21T00:29:03.505Z,3.72
2022-09-21T00:31:31.955Z,4.28
2022-09-21T00:34:00.223Z,3.70
2022-09-21T00:36:28.331Z,3.75
2022-09-21T00:38:59.074Z,3.45
2022-09-21T00:41:27.904Z,4.22
2022-09-21T00:44:32.664Z,3.50
2022-09-21T00:47:10.475Z,3.03
2022-09-21T00:49:38.619Z,3.05
2022-09-21T00:52:08.037Z,3.28
2022-09-21T00:54:40.918Z,3.20
2022-09-21T00:57:08.608Z,3.28
2022-09-21T00:59:38.363Z,3.83
2022-09-21T01:02:06.291Z,3.05
2022-09-21T01:04:34.792Z,3.47
2022-09-21T01:07:05.700Z,3.40
2022-09-21T01:09:33.220Z,3.10
2022-09-21T01:12:29.391Z,2.80
2022-09-21T01:15:03.454Z,3.20
2022-09-21T01:17:42.208Z,2.72
2022-09-21T01:20:44.835Z,2.72
2022-09-21T01:23:30.736Z,3.17
2022-09-21T01:26:40.644Z,2.78
2022-09-21T01:29:31.888Z,3.42
2022-09-21T01:32:02.307Z,3.35
2022-09-21T01:35:03.289Z,2.75
2022-09-21T01:37:52.678Z,3.22
2022-09-21T01:40:35.603Z,3.10
2022-09-21T01:43:05.555Z,2.42
2022-09-21T01:45:36.988Z,2.80
2022-09-21T01:48:05.331Z,2.72
2022-09-21T01:50:36.758Z,2.70
2022-09-21T01:53:29.975Z,2.80
2022-09-21T01:56:10.798Z,3.45
2022-09-21T01:58:53.229Z,2.40
2022-09-21T02:01:23.509Z,2.75
2022-09-21T02:03:57.691Z,3.20
2022-09-21T02:06:26.755Z,3.17
2022-09-21T02:08:54.013Z,3.50
2022-09-21T02:11:21.307Z,3.50
2022-09-21T02:13:50.976Z,3.60
2022-09-21T02:16:33.758Z,3.33
2022-09-21T02:19:30.492Z,3.13
2022-09-21T02:22:09.652Z,3.42
2022-09-21T02:24:56.135Z,3.25
2022-09-21T02:27:49.008Z,3.45
2022-09-21T02:30:19.982Z,3.75
2022-09-21T02:32:58.791Z,4.10
2022-09-21T02:35:46.567Z,3.80
2022-09-21T02:38:30.463Z,3.92
2022-09-21T02:41:07.028Z,4.25
2022-09-21T02:43:37.817Z,3.70
2022-09-21T02:46:12.191Z,3.58
2022-09-21T02:48:47.068Z,4.10
2022-09-21T02:51:18.483Z,3.95
2022-09-21T02:53:47.211Z,3.67
2022-09-21T02:56:14.862Z,3.80
2022-09-21T02:58:54.302Z,3.72
2022-09-21T03:01:22.732Z,4.23
2022-09-21T03:03:50.060Z,3.70
2022-09-21T03:06:17.331Z,3.90
2022-09-21T03:08:44.853Z,3.40
2022-09-21T03:11:19.233Z,4.38
2022-09-21T03:13:46.825Z,4.03
2022-09-21T03:16:14.358Z,3.70
2022-09-21T03:18:44.598Z,3.50
2022-09-21T03:21:12.464Z,3.90
2022-09-21T03:23:40.337Z,3.65
2022-09-21T03:26:08.467Z,3.90
2022-09-21T03:28:35.791Z,3.90
2022-09-21T03:31:03.278Z,3.70
2022-09-21T03:33:30.519Z,3.83
2022-09-21T03:35:58.078Z,4.30
2022-09-21T03:38:27.055Z,3.88
2022-09-21T03:40:58.079Z,4.18
2022-09-21T03:43:25.673Z,4.22
2022-09-21T03:45:54.044Z,3.85
2022-09-21T03:48:22.182Z,4.80
2022-09-21T03:50:49.700Z,4.18
2022-09-21T03:53:19.128Z,4.10
2022-09-21T03:55:46.401Z,5.50
2022-09-21T03:58:13.720Z,6.22
2022-09-21T04:00:41.088Z,5.00
2022-09-21T04:03:08.427Z,5.80
2022-09-21T04:05:39.085Z,6.63
2022-09-21T04:08:07.148Z,11.02
2022-09-21T04:10:34.467Z,14.15
2022-09-21T04:13:04.123Z,13.35
2022-09-21T04:15:31.545Z,15.45
2022-09-21T04:17:59.210Z,13.60
2022-09-21T04:20:26.617Z,10.43
2022-09-21T04:22:53.932Z,8.73
2022-09-21T04:25:21.263Z,8.10
2022-09-21T04:27:48.600Z,7.93
2022-09-21T04:30:16.410Z,7.80
2022-09-21T04:32:44.228Z,7.40
2022-09-21T04:35:11.652Z,7.53
2022-09-21T04:37:39.081Z,6.72
2022-09-21T04:40:07.677Z,6.80
2022-09-21T04:42:35.009Z,6.43
2022-09-21T04:45:02.397Z,6.03
2022-09-21T04:47:31.180Z,6.10
2022-09-21T04:49:58.709Z,5.95
2022-09-21T04:52:25.998Z,5.85
2022-09-21T04:54:53.337Z,5.72
2022-09-21T04:57:20.807Z,6.03
2022-09-21T04:59:48.366Z,5.10
2022-09-21T05:02:15.632Z,5.53
2022-09-21T05:04:45.455Z,5.10
2022-09-21T05:07:15.192Z,5.43
2022-09-21T05:10:01.199Z,5.45
2022-09-21T05:12:30.499Z,5.53
2022-09-21T05:14:57.834Z,5.40
2022-09-21T05:17:25.176Z,5.20
2022-09-21T05:19:53.433Z,6.38
2022-09-21T05:22:21.301Z,5.47
2022-09-21T05:24:48.655Z,5.63
2022-09-21T05:27:16.352Z,5.45
2022-09-21T05:29:44.003Z,5.90
2022-09-21T05:32:28.179Z,5.63
2022-09-21T05:35:49.847Z,5.43
2022-09-21T05:38:18.657Z,5.65
2022-09-21T05:40:47.690Z,5.63
2022-09-21T05:43:15.379Z,5.13
2022-09-21T05:45:47.909Z,5.63
2022-09-21T05:50:57.999Z,5.20
2022-09-21T05:53:53.471Z,5.47
2022-09-21T05:56:42.648Z,5.47
2022-09-21T05:59:25.429Z,5.45
2022-09-21T06:02:02.252Z,6.22
2022-09-21T06:04:29.967Z,5.28
2022-09-21T06:06:57.394Z,5.85
2022-09-21T06:09:26.968Z,5.72
2022-09-21T06:11:57.155Z,5.63
2022-09-21T06:14:25.685Z,5.72
2022-09-21T06:16:53.189Z,5.38
2022-09-21T06:19:20.479Z,6.60
2022-09-21T06:21:48.269Z,5.95
2022-09-21T06:24:15.668Z,5.95
2022-09-21T06:26:43.087Z,6.45
2022-09-21T06:29:10.471Z,5.85
2022-09-21T06:31:37.706Z,6.80
2022-09-21T06:34:05.161Z,5.65
2022-09-21T06:36:32.662Z,6.45
2022-09-21T06:39:00.020Z,7.32
2022-09-21T06:41:27.210Z,6.60
2022-09-21T06:43:56.043Z,6.57
2022-09-21T06:46:24.234Z,7.03
2022-09-21T06:48:51.536Z,6.55
2022-09-21T06:51:20.851Z,7.60
2022-09-21T06:53:48.690Z,6.83
2022-09-21T06:56:16.635Z,7.05
2022-09-21T06:58:43.994Z,8.05
2022-09-21T07:01:12.965Z,8.07
2022-09-21T07:03:41.973Z,8.27
2022-09-21T07:06:15.590Z,8.23
2022-09-21T07:11:31.520Z,7.63
2022-09-21T07:13:59.750Z,8.20
2022-09-21T07:16:28.063Z,8.07
2022-09-21T07:18:56.231Z,8.90
2022-09-21T07:21:24.254Z,8.43
2022-09-21T07:23:51.410Z,9.43
2022-09-21T07:26:18.730Z,10.02
2022-09-21T07:28:46.234Z,9.35
2022-09-21T07:31:15.661Z,9.30
2022-09-21T07:33:44.036Z,9.02
2022-09-21T07:36:13.164Z,9.13
2022-09-21T07:38:42.638Z,9.25
2022-09-21T07:41:12.283Z,9.25
2022-09-21T07:43:40.385Z,8.35
2022-09-21T07:46:12.662Z,8.95
2022-09-21T07:48:40.107Z,8.95
2022-09-21T07:51:09.950Z,9.40
2022-09-21T07:53:38.348Z,10.18
2022-09-21T07:56:07.854Z,9.05
2022-09-21T07:58:54.728Z,8.63
2022-09-21T08:01:22.939Z,9.25
2022-09-21T08:03:54.962Z,9.23
2022-09-21T08:06:23.844Z,8.35
2022-09-21T08:08:56.726Z,9.15
2022-09-21T08:11:27.686Z,7.93
2022-09-21T08:13:57.905Z,8.68
2022-09-21T08:16:26.209Z,7.45
2022-09-21T08:18:53.878Z,8.18
2022-09-21T08:21:21.979Z,8.68
2022-09-21T08:23:51.994Z,8.70
2022-09-21T08:26:20.866Z,8.55
2022-09-21T08:28:51.538Z,7.32
2022-09-21T08:31:20.401Z,7.30
2022-09-21T08:33:49.132Z,8.13
2022-09-21T08:36:17.007Z,8.18
2022-09-21T08:38:44.271Z,7.45
2022-09-21T08:41:18.945Z,7.85
2022-09-21T08:44:03.800Z,7.88
2022-09-21T08:46:32.887Z,7.47
2022-09-21T08:49:04.375Z,7.80
2022-09-21T08:51:35.566Z,8.02
2022-09-21T08:54:21.246Z,9.25
2022-09-21T08:57:04.611Z,8.93
2022-09-21T08:59:34.318Z,8.60
2022-09-21T09:02:13.815Z,8.93
2022-09-21T09:04:57.695Z,9.15
2022-09-21T09:07:37.252Z,7.65
2022-09-21T09:10:22.117Z,7.55
2022-09-21T09:13:20.606Z,7.95
2022-09-21T09:16:26.393Z,7.82
2022-09-21T09:19:32.778Z,6.70
2022-09-21T09:22:02.454Z,6.65
2022-09-21T09:24:39.113Z,6.82
2022-09-21T09:27:15.297Z,6.60
2022-09-21T09:30:03.736Z,7.10
2022-09-21T09:33:00.590Z,6.80
2022-09-21T09:35:46.113Z,6.25
2022-09-21T09:38:26.917Z,6.28
2022-09-21T09:41:11.328Z,5.75
2022-09-21T09:43:46.630Z,6.80
2022-09-21T09:46:38.662Z,7.00
2022-09-21T09:49:35.876Z,5.22
2022-09-21T09:52:04.127Z,5.43
2022-09-21T09:54:34.377Z,5.40
2022-09-21T09:59:43.103Z,5.13
2022-09-21T10:02:25.111Z,5.40
2022-09-21T10:04:58.349Z,4.70
2022-09-21T10:07:43.108Z,4.72
2022-09-21T10:10:28.904Z,4.88
2022-09-21T10:13:03.042Z,5.10
2022-09-21T10:15:30.617Z,5.00
2022-09-21T10:18:15.353Z,4.25
2022-09-21T10:21:23.651Z,4.65
2022-09-21T10:23:59.654Z,4.22
2022-09-21T10:26:37.146Z,4.70
2022-09-21T10:29:21.325Z,4.15
2022-09-21T10:32:01.838Z,4.40
2022-09-21T10:34:31.453Z,3.95
2022-09-21T10:37:01.571Z,3.70
2022-09-21T10:39:31.461Z,4.18
2022-09-21T10:42:05.329Z,4.30
2022-09-21T10:44:41.440Z,3.55
2022-09-21T10:47:17.864Z,3.97
2022-09-21T10:49:51.231Z,3.72
2022-09-21T10:52:24.967Z,3.75
2022-09-21T10:54:55.503Z,3.63
2022-09-21T10:57:24.903Z,3.28
2022-09-21T10:59:52.137Z,3.53
2022-09-21T11:02:33.120Z,3.65
2022-09-21T11:05:14.902Z,2.90
2022-09-21T11:07:57.152Z,4.07
2022-09-21T11:10:46.638Z,3.78
2022-09-21T11:13:36.827Z,3.77
2022-09-21T11:18:40.639Z,4.65
2022-09-21T11:21:41.812Z,3.58
2022-09-21T11:24:46.876Z,3.50
2022-09-21T11:27:21.824Z,2.78
2022-09-21T11:29:52.492Z,3.88
2022-09-21T11:32:37.867Z,3.05
2022-09-21T11:35:33.156Z,2.42
2022-09-21T11:38:22.504Z,3.80
2022-09-21T11:40:54.570Z,3.00
2022-09-21T11:43:52.644Z,2.30
2022-09-21T11:46:30.324Z,2.80
2022-09-21T11:49:12.722Z,2.80
2022-09-21T11:52:21.403Z,2.40
2022-09-21T11:55:00.608Z,2.63
2022-09-21T11:57:36.189Z,4.45
2022-09-21T12:00:11.621Z,2.72
2022-09-21T12:03:07.597Z,3.38
2022-09-21T12:06:04.812Z,2.60
2022-09-21T12:08:32.147Z,2.85
2022-09-21T12:11:21.218Z,2.72
2022-09-21T12:14:12.976Z,2.85
2022-09-21T12:17:25.388Z,2.25
2022-09-21T12:20:11.323Z,3.03
2022-09-21T12:22:43.956Z,2.60
2022-09-21T12:25:25.611Z,2.65
2022-09-21T12:28:11.145Z,2.00
2022-09-21T12:30:44.662Z,1.90
2022-09-21T12:33:37.191Z,1.92
2022-09-21T12:36:07.353Z,2.15
2022-09-21T12:38:53.319Z,1.95
2022-09-21T12:41:34.343Z,2.55
2022-09-21T12:44:01.661Z,2.10
2022-09-21T12:46:32.593Z,2.10
2022-09-21T12:49:02.231Z,1.83
2022-09-21T12:51:41.590Z,2.55
2022-09-21T12:54:20.955Z,1.83
2022-09-21T12:56:56.562Z,2.50
2022-09-21T12:59:50.045Z,1.92
2022-09-21T13:02:21.855Z,2.72
2022-09-21T13:05:14.068Z,2.78
2022-09-21T13:08:08.662Z,2.40
2022-09-21T13:10:51.688Z,2.78
2022-09-21T13:13:26.895Z,2.20
2022-09-21T13:15:55.175Z,2.42
2022-09-21T13:18:36.348Z,2.80
2022-09-21T13:21:18.687Z,2.58
2022-09-21T13:23:55.353Z,2.22
2022-09-21T13:27:00.089Z,3.58
2022-09-21T13:29:57.148Z,2.00
2022-09-21T13:32:27.279Z,2.15
2022-09-21T13:35:42.212Z,2.13
2022-09-21T13:38:33.179Z,2.35
2022-09-21T13:41:40.264Z,2.33
2022-09-21T13:44:40.996Z,1.85
2022-09-21T13:47:09.089Z,1.58
2022-09-21T13:49:45.900Z,1.42
2022-09-21T13:52:13.174Z,1.98
2022-09-21T13:54:58.872Z,1.60
2022-09-21T13:58:05.230Z,1.58
2022-09-21T14:00:36.544Z,1.42
2022-09-21T14:03:25.506Z,1.67
2022-09-21T14:06:02.966Z,2.15
2022-09-21T14:08:38.667Z,1.75
2022-09-21T14:11:16.320Z,2.08
2022-09-21T14:14:02.806Z,1.50
2022-09-21T14:16:42.118Z,1.35
2022-09-21T14:19:17.985Z,1.60
2022-09-21T14:22:03.788Z,1.70
2022-09-21T14:24:44.791Z,1.58
2022-09-21T14:27:49.285Z,1.58
2022-09-21T14:30:20.074Z,1.65
2022-09-21T14:32:59.987Z,1.90
2022-09-21T14:35:33.800Z,1.60
2022-09-21T14:38:13.897Z,1.55
2022-09-21T14:40:49.449Z,1.52
2022-09-21T14:43:29.828Z,1.55
2022-09-21T14:46:16.848Z,2.00
2022-09-21T14:48:54.351Z,1.40
2022-09-21T14:51:40.819Z,1.38
2022-09-21T14:54:31.290Z,1.65
2022-09-21T14:57:15.513Z,1.83
2022-09-21T15:00:14.334Z,1.77
2022-09-21T15:02:44.755Z,1.40
2022-09-21T15:05:14.975Z,1.40
2022-09-21T15:11:09.585Z,1.40
2022-09-21T15:14:09.983Z,1.50
2022-09-21T15:16:38.084Z,1.63
2022-09-21T15:19:28.923Z,1.40
2022-09-21T15:21:57.217Z,1.52
2022-09-21T15:24:34.229Z,1.60
2022-09-21T15:27:34.628Z,1.10
2022-09-21T15:32:38.473Z,1.10
2022-09-21T15:35:07.973Z,1.30
2022-09-21T15:37:45.937Z,1.67
2022-09-21T15:40:32.523Z,1.45
2022-09-21T15:43:23.592Z,1.92
2022-09-21T15:45:57.473Z,1.35
2022-09-21T15:48:36.524Z,1.30
2022-09-21T15:51:28.034Z,1.25
2022-09-21T15:54:21.980Z,1.15
2022-09-21T15:56:55.112Z,1.52
2022-09-21T15:59:25.665Z,1.52
2022-09-21T16:01:57.675Z,1.40
2022-09-21T16:04:27.337Z,1.55
2022-09-21T16:07:10.223Z,2.17
2022-09-21T16:09:45.117Z,1.30
2022-09-21T16:12:33.029Z,1.63
2022-09-21T16:15:04.598Z,1.20
2022-09-21T16:17:37.832Z,1.40
2022-09-21T16:20:10.542Z,1.30
2022-09-21T16:22:39.737Z,1.52
2022-09-21T16:25:38.829Z,1.40
2022-09-21T16:28:30.681Z,1.35
2022-09-21T16:30:59.175Z,1.35
2022-09-21T16:33:47.277Z,1.90
2022-09-21T16:36:22.310Z,1.10
2022-09-21T16:39:06.105Z,1.88
2022-09-21T16:41:36.294Z,1.55
2022-09-21T16:46:36.384Z,1.42
2022-09-21T16:49:05.278Z,1.50
2022-09-21T16:51:33.120Z,1.40
2022-09-21T16:54:03.002Z,1.67
2022-09-21T16:56:32.639Z,1.90
2022-09-21T16:59:00.347Z,1.85
2022-09-21T17:01:27.990Z,1.70
2022-09-21T17:03:56.798Z,1.58
2022-09-21T17:06:24.284Z,1.83
2022-09-21T17:08:51.696Z,1.80
2022-09-21T17:11:22.180Z,1.80
2022-09-21T17:13:50.565Z,1.25
2022-09-21T17:16:22.060Z,1.63
2022-09-21T17:18:52.263Z,1.40
2022-09-21T17:21:19.837Z,1.80
2022-09-21T17:23:50.176Z,1.55
2022-09-21T17:28:48.481Z,1.42
2022-09-21T17:31:16.885Z,1.70
2022-09-21T17:33:44.861Z,1.77
2022-09-21T17:36:16.193Z,1.35
2022-09-21T17:38:44.434Z,1.50
2022-09-21T17:41:21.214Z,1.40
2022-09-21T17:44:18.800Z,1.80
2022-09-21T17:47:09.690Z,1.90
2022-09-21T17:49:39.433Z,1.65
2022-09-21T17:52:46.044Z,1.83
2022-09-21T17:55:14.018Z,2.15
2022-09-21T17:58:27.450Z,2.83
2022-09-21T18:01:12.110Z,1.90
2022-09-21T18:03:44.847Z,2.22
2022-09-21T18:06:15.686Z,2.33
2022-09-21T18:08:43.344Z,2.03
2022-09-21T18:11:44.389Z,2.58
2022-09-21T18:14:48.344Z,2.15
2022-09-21T18:17:50.240Z,2.58
2022-09-21T18:20:57.796Z,2.28
2022-09-21T18:23:48.231Z,2.45
2022-09-21T18:28:58.096Z,2.85
2022-09-21T18:31:43.731Z,2.47
2022-09-21T18:34:32.277Z,3.28
2022-09-21T18:37:29.853Z,2.40
2022-09-21T18:40:22.554Z,2.55
2022-09-21T18:42:55.948Z,2.60
2022-09-21T18:45:40.324Z,2.88
2022-09-21T18:48:48.490Z,2.70
2022-09-21T18:51:29.380Z,2.85
2022-09-21T18:54:01.896Z,3.08
2022-09-21T18:56:40.861Z,2.97
2022-09-21T18:59:16.608Z,2.90
2022-09-21T19:01:47.149Z,3.10
2022-09-21T19:04:17.282Z,2.65
2022-09-21T19:07:06.542Z,3.45
2022-09-21T19:10:15.939Z,2.90
2022-09-21T19:13:31.758Z,3.35
2022-09-21T19:16:14.328Z,3.08
2022-09-21T19:18:50.891Z,3.10
2022-09-21T19:22:02.965Z,3.47
2022-09-21T19:24:56.968Z,2.97
2022-09-21T19:27:50.116Z,2.85
2022-09-21T19:30:20.819Z,2.90
2022-09-21T19:32:48.330Z,3.50
2022-09-21T19:35:25.126Z,3.20
2022-09-21T19:37:54.621Z,3.17
2022-09-21T19:40:28.332Z,3.35
2022-09-21T19:43:18.905Z,3.42
2022-09-21T19:46:14.387Z,3.05
2022-09-21T19:48:44.259Z,3.53
2022-09-21T19:51:18.885Z,3.33
2022-09-21T19:54:12.417Z,3.70
2022-09-21T19:57:05.271Z,3.83
2022-09-21T19:59:45.717Z,3.85
2022-09-21T20:02:45.513Z,4.03
2022-09-21T20:05:20.004Z,3.95
2022-09-21T20:07:53.431Z,3.92
2022-09-21T20:10:23.038Z,3.40
2022-09-21T20:13:14.815Z,3.72
2022-09-21T20:15:54.353Z,3.25
2022-09-21T20:18:28.521Z,3.08
2022-09-21T20:20:58.892Z,3.35
2022-09-21T20:23:29.009Z,3.25
2022-09-21T20:26:01.085Z,3.50
2022-09-21T20:28:28.855Z,3.25
2022-09-21T20:30:56.340Z,3.85
2022-09-21T20:33:24.796Z,4.28
2022-09-21T20:35:55.519Z,3.47
2022-09-21T20:38:23.224Z,3.38
2022-09-21T20:40:51.669Z,3.47
2022-09-21T20:43:23.077Z,3.45
2022-09-21T20:45:59.555Z,3.17
2022-09-21T20:48:30.466Z,3.80
2022-09-21T20:50:59.156Z,2.92
2022-09-21T20:53:26.387Z,3.25
2022-09-21T20:55:55.412Z,3.70
2022-09-21T20:58:22.836Z,3.70
2022-09-21T21:00:58.603Z,3.35
2022-09-21T21:03:46.613Z,3.50
2022-09-21T21:06:16.627Z,3.38
2022-09-21T21:08:44.078Z,3.53
2022-09-21T21:11:11.461Z,3.80
2022-09-21T21:13:38.910Z,3.47
2022-09-21T21:16:11.555Z,4.13
2022-09-21T21:18:40.836Z,3.70
2022-09-21T21:21:08.275Z,3.60
2022-09-21T21:23:54.048Z,3.67
2022-09-21T21:26:33.359Z,3.22
2022-09-21T21:29:09.022Z,3.72
2022-09-21T21:31:36.421Z,3.70
2022-09-21T21:34:03.903Z,3.85
2022-09-21T21:36:31.665Z,3.60
2022-09-21T21:38:59.114Z,3.78
2022-09-21T21:41:26.390Z,3.85
2022-09-21T21:43:53.737Z,3.65
2022-09-21T21:46:21.167Z,3.90
2022-09-21T21:48:48.731Z,3.83
2022-09-21T21:51:16.064Z,3.75
2022-09-21T21:53:43.798Z,3.72
2022-09-21T21:56:18.996Z,3.70
2022-09-21T21:58:46.605Z,3.58
2022-09-21T22:01:19.580Z,3.60
2022-09-21T22:03:48.067Z,3.42
2022-09-21T22:06:15.294Z,3.80
2022-09-21T22:08:43.162Z,3.30
2022-09-21T22:11:10.932Z,3.40
2022-09-21T22:13:39.702Z,3.60
2022-09-21T22:16:12.591Z,3.55
2022-09-21T22:18:40.186Z,3.67
2022-09-21T22:21:22.163Z,3.10
2022-09-21T22:23:54.028Z,4.55
2022-09-21T22:26:22.041Z,4.25
2022-09-21T22:28:52.278Z,4.30
2022-09-21T22:33:48.788Z,4.70
2022-09-21T22:36:18.724Z,4.70
2022-09-21T22:38:46.625Z,5.13
2022-09-21T22:41:18.770Z,5.07
2022-09-21T22:43:47.485Z,5.50
2022-09-21T22:46:18.250Z,5.32
2022-09-21T22:48:46.054Z,5.15
2022-09-21T22:51:14.398Z,5.07
2022-09-21T22:53:42.230Z,4.85
2022-09-21T22:56:15.737Z,5.10
2022-09-21T22:58:45.489Z,4.97
2022-09-21T23:01:18.249Z,4.65
2022-09-21T23:04:13.249Z,4.60
2022-09-21T23:06:49.138Z,4.57
2022-09-21T23:09:31.336Z,4.60
2022-09-21T23:12:04.555Z,5.00
2022-09-21T23:14:31.721Z,4.72
2022-09-21T23:16:58.987Z,4.65
2022-09-21T23:19:26.507Z,4.85
2022-09-21T23:21:53.979Z,5.07
2022-09-21T23:24:21.899Z,4.32
2022-09-21T23:26:51.184Z,4.60
2022-09-21T23:29:18.526Z,4.67
2022-09-21T23:31:46.527Z,4.45
2022-09-21T23:34:15.785Z,4.95
2022-09-21T23:36:43.918Z,5.10
2022-09-21T23:39:13.108Z,5.00
2022-09-21T23:41:40.537Z,4.55
2022-09-21T23:44:08.200Z,4.60
2022-09-21T23:46:37.048Z,4.60
2022-09-21T23:49:04.828Z,4.90
2022-09-21T23:51:32.253Z,4.22
2022-09-21T23:54:00.222Z,4.32
2022-09-21T23:56:28.594Z,4.78
2022-09-21T23:58:56.387Z,4.38
